x

Neah Bay, - 6nm North Of Cape Flattery, Wa (traffic Separation Lighted Buoy) (46087) Wave Buoy

4:20 - Fri 22nd Sep 2017 All times are PDT. -7 hours from GMT.

  • Sig Wave height 3.9ft
  • Swell Direction
  • Peak Period 8s
  • Average Period 6s
  • Wind
    4mph, 4mph gusts
  • Sea Temp 54°f
  • Luft Temp 53°f
  • Sea Pressure 1016.8mb
  • Neah Bay, - 6nm North Of Cape Flattery, Wa     (traffic Separation Lighted Buoy)
  • Neah Bay, - 6nm North Of Cape Flattery, Wa     (traffic Separation Lighted Buoy)

More Historic Weather Station data

Upgrade to MSW Pro to gain access to the past 30 days of data for over 8000 Wavebouys and Weather Stations around the globe.

Join

Comparision Forecast

View Surf forecast
   
Fr 09/22 4:20 4ft 8s 6s 4 4 mph 1016.8mb 54f 53f
3:50 4ft 9s 6s 4 4 mph 1016.8mb 53f 53f
3:20 4.5ft 9s 6s 4 4 mph 1016.9mb 53f 54f
2:50 4.5ft 9s 6s 7 7 mph 1016.9mb 53f 54f
2:20 4.5ft 9s 7s 2 2 mph 1016.9mb 53f 54f
1:50 5ft 8s 7s 4 7 mph 1017mb 53f 53f
1:20 5.5ft 9s 7s 4 4 mph 1017.2mb 52f 52f
12:50 5.5ft 9s 7s 2 4 mph 1017.2mb 52f 53f
12:20 6ft 9s 8s 7 7 mph 1017.1mb 52f 52f
11:50 6ft 9s 8s 7 11 mph 1017.2mb 52f 52f
11:20 6.5ft 8s 8s 7 7 mph 1017.3mb 52f 52f
10:50 6ft 9s 8s 7 9 mph 1017.4mb 51f 52f
10:20 7ft 10s 8s 9 11 mph 1017.5mb 51f 51f
9:50 6.5ft 10s 8s 11 13 mph 1017.5mb 51f 52f
9:20 6.5ft 10s 8s 11 16 mph 1017.6mb 51f 51f
8:50 6ft 10s 8s 7 9 mph 1017.5mb 51f 51f
8:20 6ft 9s 8s 9 13 mph 1017.3mb 51f 50f
7:50 6.5ft 9s 8s 7 13 mph 1017.2mb 51f 49f
7:20 6ft 9s 8s 4 7 mph 1017.1mb 51f 49f
6:50 6.5ft 10s 8s 2 4 mph 1016.8mb 51f 50f
6:20 6.5ft 9s 8s 4 4 mph 1016.6mb 51f 49f
5:50 6.5ft 9s 7s 2 4 mph 1016.5mb 51f 50f
5:20 6ft 10s 7s 2 4 mph 1016.3mb 51f 50f
4:50 6ft 9s 8s  -  2 mph 1016.3mb 51f 50f
4:20 5.5ft 10s 7s  -  2 mph 1016.2mb 51f 50f
3:50 5.5ft 9s 7s 2 2 mph 1016.1mb 51f 50f
3:20 5.5ft 9s 7s 2 4 mph 1016.1mb 51f 50f
2:50 5.5ft 10s 7s  -  2 mph 1016.1mb 51f 50f
2:20 6ft 10s 7s 2 2 mph 1016.2mb 51f 50f
1:50 6.5ft 10s 7s 2 4 mph 1016.1mb 51f 51f
1:20 7.5ft 10s 8s 2 4 mph 1016.1mb 51f 52f
12:50 7ft 9s 8s 4 4 mph 1016.1mb 51f 52f
12:20 8ft 10s 8s 4 7 mph 1016.1mb 51f 52f
Do 09/21 11:50 7.5ft 10s 9s 2 4 mph 1016mb 51f 52f
11:20 7ft 9s 8s 2 4 mph 1016mb 51f 52f
10:50 8ft 10s 9s  -  2 mph 1015.9mb 51f 52f
10:20 7ft 10s 8s 2 4 mph 1015.9mb 52f 53f
9:50 6.5ft 11s 9s 4 4 mph 1016mb 52f 53f
9:20 6.5ft 10s 9s 2 4 mph 1015.9mb 52f 53f
8:50 7ft 10s 9s 4 7 mph 1015.8mb 51f 53f
8:20 7ft 11s 9s 4 7 mph 1015.8mb 52f 53f
7:50 8ft 11s 9s 4 7 mph 1015.6mb 52f 53f
7:20 7ft 11s 8s 9 9 mph 1015.4mb 52f 53f
6:50 7ft 11s 8s 7 9 mph 1015.3mb 52f 53f
6:20 7.5ft 10s 8s 7 9 mph 1015.1mb 52f 54f
5:50 7.5ft 10s 8s 7 9 mph 1015mb 52f 54f
5:20 8ft 11s 9s 2 4 mph 1014.9mb 52f 55f
4:50 7ft 10s 8s 4 7 mph 1014.5mb 52f 53f
4:20 7ft 11s 8s 7 9 mph 1014.3mb 52f 54f
3:50 7ft 11s 8s 7 11 mph 1014mb 52f 54f
3:20 7ft 10s 8s 9 11 mph 1013.8mb 52f 53f
2:50 7ft 9s 8s 7 9 mph 1013.6mb 52f 53f
2:20 7.5ft 10s 8s 9 13 mph 1013.6mb 52f 52f
1:50 7ft 9s 8s 7 9 mph 1013.7mb 52f 52f
1:20 8ft 9s 8s 9 11 mph 1013.6mb 52f 51f
12:50 6.5ft 9s 8s 11 13 mph 1013.5mb 52f 51f
12:20 8ft 10s 8s 9 11 mph 1013.5mb 52f 51f
11:50 7ft 10s 8s 9 11 mph 1013.4mb 52f 51f
11:20 7ft 10s 8s 9 11 mph 1013.2mb 52f 51f
10:50 7ft 10s 8s 9 11 mph 1013.1mb 52f 52f
10:20 6.5ft 10s 8s 7 7 mph 1013mb 52f 52f
9:50 6.5ft 10s 8s 4 7 mph 1012.9mb 52f 52f
9:20 7.5ft 9s 8s 2 4 mph 1012.7mb 52f 52f
8:50 6.5ft 10s 8s 4 4 mph 1012.6mb 52f 51f
8:20 7ft 10s 8s 7 9 mph 1012.4mb 52f 51f
7:50 6.5ft 11s 8s 9 13 mph 1012.3mb 52f 51f
7:20 7.5ft 10s 8s 9 13 mph 1012.1mb 52f 50f
6:50 7.5ft 10s 8s 7 11 mph 1011.9mb 52f 51f
6:20 7ft 11s 8s 7 11 mph 1011.7mb 52f 51f
5:50 7ft 10s 8s 7 7 mph 1011.4mb 52f 51f
5:20 7.5ft 10s 8s 7 9 mph 1011.1mb 52f 51f
4:50 7.5ft 9s 8s 4 9 mph 1010.7mb 52f 51f
4:20 8ft 11s 8s 4 7 mph 1010.6mb 52f 51f
3:50 8ft 10s 8s 7 9 mph 1010.3mb 53f 51f
3:20 8ft 10s 7s 7 7 mph 1010.2mb 53f 51f
2:50 8ft 10s 7s 4 7 mph 1009.9mb 53f 51f
2:20 7.5ft 10s 7s 4 4 mph 1009.7mb 53f 51f
1:50 7ft 10s 7s 4 7 mph 1009.7mb 53f 51f
1:20 8ft 9s 7s 4 7 mph 1009.6mb 53f 51f
12:50 8ft 9s 8s 4 7 mph 1009.4mb 53f 51f
12:20 9ft 9s 8s 7 9 mph 1009.2mb 53f 51f
Mi 09/20 11:50 9ft 8s 8s 7 9 mph 1008.9mb 53f 52f
11:20 9.5ft 9s 8s 7 9 mph 1008.9mb 53f 52f
10:50 9.5ft 10s 8s 7 9 mph 1008.8mb 53f 52f
10:20 9ft 10s 8s 4 9 mph 1008.9mb 53f 52f
9:50 8ft 9s 8s 2 4 mph 1008.9mb 54f 53f
9:20 7.5ft 9s 8s  -  2 mph 1008.8mb 54f 53f
8:50 7ft 10s 8s 2 4 mph 1008.6mb 54f 53f
8:20 6.5ft 9s 8s 4 4 mph 1008.6mb 54f 53f
7:50 6ft 10s 8s 2 4 mph 1008.3mb 54f 53f
7:20 5ft 9s 8s 2 4 mph 1008.2mb 54f 53f
6:50 5ft 9s 8s 4 4 mph 1008.1mb 53f 53f
6:20 5ft 10s 8s 4 7 mph 1008mb 53f 54f
5:50 4.5ft 10s 8s 4 7 mph 1007.6mb 53f 54f
5:20 4.5ft 10s 8s 7 7 mph 1007.3mb 54f 55f
4:50 4.5ft 11s 8s 4 7 mph 1007.2mb 54f 54f
4:20 5ft 11s 8s 7 7 mph 1007.1mb 54f 54f
3:50 4ft 11s 7s 4 7 mph 1007mb 54f 54f
3:20 4.5ft 9s 7s 4 4 mph 1006.8mb 54f 54f
2:50 5ft 10s 7s 4 7 mph 1006.6mb 54f 54f
2:20 5ft 10s 7s 4 7 mph 1006.4mb 54f 53f
1:50 5ft 11s 7s 4 4 mph 1006.5mb 54f 53f
1:20 5ft 11s 7s 2 4 mph 1006.3mb 54f 52f
12:50 5ft 11s 7s 2 4 mph 1006.2mb 53f 52f
12:20 5.5ft 9s 7s 2 4 mph 1006mb 53f 51f
11:50 7ft 11s 8s 4 4 mph 1005.7mb 53f 51f
11:20 5.5ft 11s 8s 4 7 mph 1005.4mb 53f 51f
10:50 6ft 10s 8s 2 4 mph 1005.3mb 52f 51f
10:20 6ft 9s 8s 2 4 mph 1005.2mb 52f 51f
9:50 6.5ft 11s 8s  -  0 mph 1005mb 52f 51f
9:20 5.5ft 9s 8s  -  2 mph 1004.9mb 52f 51f
8:50 6.5ft 10s 8s 2 4 mph 1004.7mb 51f 50f
8:20 6ft 11s 8s 4 7 mph 1004.6mb 51f 49f
7:50 5.5ft 11s 8s 4 7 mph 1004.5mb 51f 49f
7:20 5ft 11s 8s 4 7 mph 1004.3mb 51f 49f
6:50 4.5ft 11s 8s 7 7 mph 1004mb 51f 49f
6:20 5ft 11s 8s 4 7 mph 1003.9mb 51f 49f
5:50 6ft 11s 8s 7 9 mph 1003.7mb 51f 50f
5:20 5.5ft 10s 7s 7 9 mph 1003.5mb 51f 50f
4:50 6.5ft 11s 8s 7 9 mph 1003.3mb 51f 50f
4:20 6ft 10s 8s 9 11 mph 1003.3mb 51f 51f
3:50 6.5ft 10s 8s 11 13 mph 1003.1mb 51f 50f
3:20 6.5ft 11s 7s 7 9 mph 1003.4mb 51f 51f
2:50 6ft 11s 7s 7 9 mph 1003.5mb 52f 51f
2:20 6ft 12s 7s 7 9 mph 1003.4mb 52f 51f
1:50 6.5ft 9s 7s 4 7 mph 1003.3mb 52f 51f
1:20 6ft 12s 7s 7 7 mph 1003.6mb 52f 51f
12:50 6ft 12s 8s 9 13 mph 1003.6mb 52f 51f
12:20 7ft 12s 8s 9 11 mph 1004mb 52f 51f
Di 09/19 11:50 7ft 13s 8s 9 11 mph 1004.5mb 52f 51f
11:20 7ft 13s 8s 9 11 mph 1004.8mb 52f 52f
10:50 8ft 10s 9s 7 9 mph 1005mb 52f 52f
10:20 8.5ft 12s 9s 7 9 mph 1005.4mb 52f 52f
9:50 8ft 12s 9s 7 11 mph 1005.6mb 53f 52f
9:20 8.5ft 12s 9s 2 4 mph 1005.6mb 52f 53f
8:50 8ft 11s 9s 2 4 mph 1005.7mb 52f 53f
8:20 8ft 13s 9s 4 7 mph 1006mb 52f 54f
7:50 9ft 13s 9s 7 9 mph 1006.2mb 52f 54f
7:20 8ft 12s 9s 7 9 mph 1006.4mb 52f 53f
6:50 9ft 12s 9s 9 9 mph 1006.4mb 52f 53f
6:20 8ft 13s 9s 9 11 mph 1006.5mb 52f 54f
5:50 9.5ft 11s 9s 9 11 mph 1006.7mb 52f 53f
5:20 9ft 11s 9s 7 11 mph 1006.9mb 52f 53f
4:50 9ft 12s 9s 9 11 mph 1006.9mb 52f 53f
4:20 8.5ft 14s 9s 9 13 mph 1007mb 52f 53f
3:50 9ft 12s 9s 9 11 mph 1007mb 52f 54f
3:20 10ft 11s 9s 9 13 mph 1007.1mb 52f 54f
2:50 10ft 12s 9s 9 11 mph 1007mb 52f 53f
2:20 10.5ft 14s 9s 7 9 mph 1007.2mb 53f 53f
1:50 10ft 12s 9s 7 9 mph 1007.2mb 53f 53f
1:20 11ft 13s 9s 4 7 mph 1007.2mb 53f 53f
12:50 10.5ft 13s 9s 4 7 mph 1007.3mb 52f 52f
12:20 11ft 13s 9s 4 7 mph 1007.2mb 52f 52f
11:50 11ft 12s 9s 4 7 mph 1007.3mb 52f 51f
11:20 10ft 11s 9s 4 7 mph 1007.1mb 52f 51f
10:50 9.5ft 13s 9s 2 4 mph 1006.9mb 52f 51f
10:20 9.5ft 14s 10s 2 4 mph 1006.7mb 51f 51f
9:50 9ft 13s 10s 4 7 mph 1006.6mb 51f 51f
9:20 9ft 14s 10s 2 4 mph 1006.4mb 51f 51f
8:50 9ft 12s 10s 2 4 mph 1006.2mb 51f 51f
8:20 9.5ft 12s 10s  -  2 mph 1006.1mb 51f 51f
7:50 9.5ft 14s 11s  -  2 mph 1005.9mb 51f 51f
7:20 8.5ft 14s 11s 2 4 mph 1005.5mb 51f 51f
6:50 9ft 15s 11s 4 7 mph 1005.2mb 51f 51f
6:20 8ft 15s 11s 2 4 mph 1005mb 51f 51f
5:50 8.5ft 15s 11s 4 9 mph 1004.6mb 51f 51f
5:20 8.5ft 14s 10s 9 13 mph 1004.4mb 51f 51f
4:50 8.5ft 14s 10s 9 13 mph 1004.2mb 51f 51f
4:20 8ft 12s 10s 11 13 mph 1003.9mb 52f 51f
3:50 9.5ft 12s 10s 7 9 mph 1003.8mb 52f 51f
3:20 8ft 14s 10s 7 9 mph 1003.6mb 51f 51f
2:50 9.5ft 15s 10s 7 9 mph 1003.4mb 51f 51f
2:20 9.5ft 12s 10s 7 11 mph 1003.3mb 51f 51f
1:50 9.5ft 15s 10s 7 11 mph 1003.3mb 51f 51f
1:20 9.5ft 13s 9s 9 11 mph 1003.1mb 51f 51f
12:50 10.5ft 14s 10s 11 13 mph 1003mb 51f 51f
12:20 10ft 12s 10s 11 16 mph 1003mb 51f 52f